sensor_id;sensor_type;location;lat;lon;timestamp;P1;durP1;ratioP1;P2;durP2;ratioP2
9819;SDS011;4949;48.482;9.206;2022-12-07T00:04:17;9.90;;;6.87;;
9819;SDS011;4949;48.482;9.206;2022-12-07T00:09:20;8.57;;;6.90;;
9819;SDS011;4949;48.482;9.206;2022-12-07T00:14:21;7.37;;;6.67;;
9819;SDS011;4949;48.482;9.206;2022-12-07T00:19:24;7.17;;;6.47;;
9819;SDS011;4949;48.482;9.206;2022-12-07T00:24:27;6.77;;;6.17;;
9819;SDS011;4949;48.482;9.206;2022-12-07T00:29:28;6.93;;;6.23;;
9819;SDS011;4949;48.482;9.206;2022-12-07T00:34:31;10.50;;;6.67;;
9819;SDS011;4949;48.482;9.206;2022-12-07T00:39:34;8.10;;;6.47;;
9819;SDS011;4949;48.482;9.206;2022-12-07T00:44:35;9.30;;;7.73;;
9819;SDS011;4949;48.482;9.206;2022-12-07T00:49:36;7.73;;;6.63;;
9819;SDS011;4949;48.482;9.206;2022-12-07T00:54:39;7.20;;;6.43;;
9819;SDS011;4949;48.482;9.206;2022-12-07T00:59:40;7.63;;;6.87;;
9819;SDS011;4949;48.482;9.206;2022-12-07T01:04:41;7.40;;;6.50;;
9819;SDS011;4949;48.482;9.206;2022-12-07T01:09:41;7.07;;;6.27;;
9819;SDS011;4949;48.482;9.206;2022-12-07T01:14:42;6.87;;;6.30;;
9819;SDS011;4949;48.482;9.206;2022-12-07T01:19:43;8.50;;;6.63;;
9819;SDS011;4949;48.482;9.206;2022-12-07T01:24:44;6.67;;;5.97;;
9819;SDS011;4949;48.482;9.206;2022-12-07T01:29:46;7.03;;;5.90;;
9819;SDS011;4949;48.482;9.206;2022-12-07T01:34:47;6.63;;;6.03;;
9819;SDS011;4949;48.482;9.206;2022-12-07T01:39:49;6.27;;;5.50;;
9819;SDS011;4949;48.482;9.206;2022-12-07T01:50:17;6.90;;;6.20;;
9819;SDS011;4949;48.482;9.206;2022-12-07T01:55:26;6.77;;;6.17;;
9819;SDS011;4949;48.482;9.206;2022-12-07T02:00:29;6.00;;;5.50;;
9819;SDS011;4949;48.482;9.206;2022-12-07T02:05:30;6.43;;;5.10;;
9819;SDS011;4949;48.482;9.206;2022-12-07T02:10:32;8.23;;;6.03;;
9819;SDS011;4949;48.482;9.206;2022-12-07T02:15:50;6.20;;;5.70;;
9819;SDS011;4949;48.482;9.206;2022-12-07T02:31:50;6.80;;;6.10;;
9819;SDS011;4949;48.482;9.206;2022-12-07T02:37:01;6.43;;;5.80;;
9819;SDS011;4949;48.482;9.206;2022-12-07T02:42:15;7.00;;;5.80;;
9819;SDS011;4949;48.482;9.206;2022-12-07T02:47:22;6.40;;;5.80;;
9819;SDS011;4949;48.482;9.206;2022-12-07T02:52:27;7.30;;;6.10;;
9819;SDS011;4949;48.482;9.206;2022-12-07T03:03:07;9.97;;;6.33;;
9819;SDS011;4949;48.482;9.206;2022-12-07T03:13:28;9.60;;;8.37;;
9819;SDS011;4949;48.482;9.206;2022-12-07T03:18:50;9.50;;;8.50;;
9819;SDS011;4949;48.482;9.206;2022-12-07T03:24:05;7.37;;;6.47;;
9819;SDS011;4949;48.482;9.206;2022-12-07T03:29:14;7.57;;;6.40;;
9819;SDS011;4949;48.482;9.206;2022-12-07T03:34:25;8.50;;;6.70;;
9819;SDS011;4949;48.482;9.206;2022-12-07T03:39:39;9.67;;;8.67;;
9819;SDS011;4949;48.482;9.206;2022-12-07T03:44:49;7.77;;;6.97;;
9819;SDS011;4949;48.482;9.206;2022-12-07T03:49:51;8.43;;;7.60;;
9819;SDS011;4949;48.482;9.206;2022-12-07T04:00:15;8.57;;;7.67;;
9819;SDS011;4949;48.482;9.206;2022-12-07T04:05:18;8.83;;;7.73;;
9819;SDS011;4949;48.482;9.206;2022-12-07T04:10:19;9.20;;;7.80;;
9819;SDS011;4949;48.482;9.206;2022-12-07T04:15:23;7.77;;;6.97;;
9819;SDS011;4949;48.482;9.206;2022-12-07T04:20:26;10.27;;;7.70;;
9819;SDS011;4949;48.482;9.206;2022-12-07T04:25:29;9.10;;;7.90;;
9819;SDS011;4949;48.482;9.206;2022-12-07T04:30:30;9.73;;;8.70;;
9819;SDS011;4949;48.482;9.206;2022-12-07T04:35:30;8.47;;;7.57;;
9819;SDS011;4949;48.482;9.206;2022-12-07T04:40:34;8.63;;;7.53;;
9819;SDS011;4949;48.482;9.206;2022-12-07T04:45:34;9.57;;;8.03;;
9819;SDS011;4949;48.482;9.206;2022-12-07T04:50:38;10.10;;;8.73;;
9819;SDS011;4949;48.482;9.206;2022-12-07T04:55:41;8.90;;;8.00;;
9819;SDS011;4949;48.482;9.206;2022-12-07T05:00:41;9.30;;;7.77;;
9819;SDS011;4949;48.482;9.206;2022-12-07T05:05:45;10.20;;;8.30;;
9819;SDS011;4949;48.482;9.206;2022-12-07T05:10:46;9.40;;;7.70;;
9819;SDS011;4949;48.482;9.206;2022-12-07T05:15:53;10.27;;;7.23;;
9819;SDS011;4949;48.482;9.206;2022-12-07T05:20:54;8.50;;;7.70;;
9819;SDS011;4949;48.482;9.206;2022-12-07T05:25:55;9.93;;;8.23;;
9819;SDS011;4949;48.482;9.206;2022-12-07T05:30:59;8.73;;;7.83;;
9819;SDS011;4949;48.482;9.206;2022-12-07T05:35:59;8.13;;;7.33;;
9819;SDS011;4949;48.482;9.206;2022-12-07T05:41:05;11.40;;;8.53;;
9819;SDS011;4949;48.482;9.206;2022-12-07T05:46:07;8.50;;;7.60;;
9819;SDS011;4949;48.482;9.206;2022-12-07T05:51:08;8.60;;;7.63;;
9819;SDS011;4949;48.482;9.206;2022-12-07T05:56:09;7.97;;;7.17;;
9819;SDS011;4949;48.482;9.206;2022-12-07T06:01:09;9.60;;;8.57;;
9819;SDS011;4949;48.482;9.206;2022-12-07T06:06:14;9.93;;;8.33;;
9819;SDS011;4949;48.482;9.206;2022-12-07T06:11:15;10.20;;;8.57;;
9819;SDS011;4949;48.482;9.206;2022-12-07T06:16:34;11.63;;;8.30;;
9819;SDS011;4949;48.482;9.206;2022-12-07T06:21:35;8.80;;;8.00;;
9819;SDS011;4949;48.482;9.206;2022-12-07T06:26:36;6.00;;;5.40;;
9819;SDS011;4949;48.482;9.206;2022-12-07T06:31:37;7.80;;;6.10;;
9819;SDS011;4949;48.482;9.206;2022-12-07T06:36:38;6.63;;;5.93;;
9819;SDS011;4949;48.482;9.206;2022-12-07T06:41:42;7.47;;;5.70;;
9819;SDS011;4949;48.482;9.206;2022-12-07T06:46:42;7.40;;;6.40;;
9819;SDS011;4949;48.482;9.206;2022-12-07T06:51:45;6.60;;;5.90;;
9819;SDS011;4949;48.482;9.206;2022-12-07T06:56:49;7.23;;;5.10;;
9819;SDS011;4949;48.482;9.206;2022-12-07T07:01:50;6.57;;;4.80;;
9819;SDS011;4949;48.482;9.206;2022-12-07T07:06:50;6.00;;;5.27;;
9819;SDS011;4949;48.482;9.206;2022-12-07T07:11:51;7.50;;;5.87;;
9819;SDS011;4949;48.482;9.206;2022-12-07T07:16:52;5.03;;;4.53;;
9819;SDS011;4949;48.482;9.206;2022-12-07T07:21:55;9.37;;;7.20;;
9819;SDS011;4949;48.482;9.206;2022-12-07T07:26:55;7.10;;;6.40;;
9819;SDS011;4949;48.482;9.206;2022-12-07T07:31:56;8.40;;;7.50;;
9819;SDS011;4949;48.482;9.206;2022-12-07T07:36:59;8.83;;;7.07;;
9819;SDS011;4949;48.482;9.206;2022-12-07T07:42:00;8.23;;;7.43;;
9819;SDS011;4949;48.482;9.206;2022-12-07T07:47:04;7.50;;;6.80;;
9819;SDS011;4949;48.482;9.206;2022-12-07T07:52:05;7.50;;;6.70;;
9819;SDS011;4949;48.482;9.206;2022-12-07T07:57:06;7.83;;;4.90;;
9819;SDS011;4949;48.482;9.206;2022-12-07T08:02:13;7.53;;;6.23;;
9819;SDS011;4949;48.482;9.206;2022-12-07T08:07:16;8.20;;;7.00;;
9819;SDS011;4949;48.482;9.206;2022-12-07T08:12:17;7.03;;;6.33;;
9819;SDS011;4949;48.482;9.206;2022-12-07T08:17:22;9.10;;;7.03;;
9819;SDS011;4949;48.482;9.206;2022-12-07T08:22:23;9.27;;;7.13;;
9819;SDS011;4949;48.482;9.206;2022-12-07T08:27:23;8.53;;;7.63;;
9819;SDS011;4949;48.482;9.206;2022-12-07T08:32:26;9.43;;;8.43;;
9819;SDS011;4949;48.482;9.206;2022-12-07T08:37:27;11.43;;;8.80;;
9819;SDS011;4949;48.482;9.206;2022-12-07T08:42:28;12.30;;;9.77;;
9819;SDS011;4949;48.482;9.206;2022-12-07T08:47:40;10.70;;;8.40;;
9819;SDS011;4949;48.482;9.206;2022-12-07T08:52:48;9.70;;;8.20;;
9819;SDS011;4949;48.482;9.206;2022-12-07T08:57:55;8.90;;;8.00;;
9819;SDS011;4949;48.482;9.206;2022-12-07T09:03:02;8.40;;;7.50;;
9819;SDS011;4949;48.482;9.206;2022-12-07T09:08:03;10.20;;;7.60;;
9819;SDS011;4949;48.482;9.206;2022-12-07T09:13:04;10.13;;;8.97;;
9819;SDS011;4949;48.482;9.206;2022-12-07T09:18:05;9.17;;;8.27;;
9819;SDS011;4949;48.482;9.206;2022-12-07T09:23:06;8.70;;;7.07;;
9819;SDS011;4949;48.482;9.206;2022-12-07T09:28:07;7.63;;;6.83;;
9819;SDS011;4949;48.482;9.206;2022-12-07T09:33:08;8.37;;;7.37;;
9819;SDS011;4949;48.482;9.206;2022-12-07T09:38:11;9.03;;;7.30;;
9819;SDS011;4949;48.482;9.206;2022-12-07T09:43:13;8.43;;;7.23;;
9819;SDS011;4949;48.482;9.206;2022-12-07T09:48:25;8.63;;;7.70;;
9819;SDS011;4949;48.482;9.206;2022-12-07T09:53:37;12.13;;;7.57;;
9819;SDS011;4949;48.482;9.206;2022-12-07T09:58:38;8.60;;;6.90;;
9819;SDS011;4949;48.482;9.206;2022-12-07T10:04:27;7.33;;;6.63;;
9819;SDS011;4949;48.482;9.206;2022-12-07T10:09:24;8.53;;;7.13;;
9819;SDS011;4949;48.482;9.206;2022-12-07T10:14:27;6.30;;;5.40;;
9819;SDS011;4949;48.482;9.206;2022-12-07T10:19:32;7.37;;;5.77;;
9819;SDS011;4949;48.482;9.206;2022-12-07T10:24:36;8.47;;;6.33;;
9819;SDS011;4949;48.482;9.206;2022-12-07T10:29:40;7.40;;;6.70;;
9819;SDS011;4949;48.482;9.206;2022-12-07T10:34:56;6.47;;;5.83;;
9819;SDS011;4949;48.482;9.206;2022-12-07T10:40:33;5.43;;;4.93;;
9819;SDS011;4949;48.482;9.206;2022-12-07T10:45:41;6.23;;;5.63;;
9819;SDS011;4949;48.482;9.206;2022-12-07T11:02:25;7.03;;;5.37;;
9819;SDS011;4949;48.482;9.206;2022-12-07T11:18:51;7.23;;;6.53;;
9819;SDS011;4949;48.482;9.206;2022-12-07T11:24:16;5.77;;;5.17;;
9819;SDS011;4949;48.482;9.206;2022-12-07T11:35:29;5.93;;;5.33;;
9819;SDS011;4949;48.482;9.206;2022-12-07T11:40:53;6.23;;;5.67;;
9819;SDS011;4949;48.482;9.206;2022-12-07T11:46:13;6.47;;;5.90;;
9819;SDS011;4949;48.482;9.206;2022-12-07T11:51:17;5.60;;;5.00;;
9819;SDS011;4949;48.482;9.206;2022-12-07T11:56:23;5.70;;;5.10;;
9819;SDS011;4949;48.482;9.206;2022-12-07T12:01:40;5.93;;;5.30;;
9819;SDS011;4949;48.482;9.206;2022-12-07T12:07:17;5.73;;;5.23;;
9819;SDS011;4949;48.482;9.206;2022-12-07T12:23:06;5.43;;;4.87;;
9819;SDS011;4949;48.482;9.206;2022-12-07T12:39:31;4.57;;;4.17;;
9819;SDS011;4949;48.482;9.206;2022-12-07T12:54:58;5.33;;;4.57;;
9819;SDS011;4949;48.482;9.206;2022-12-07T13:05:20;4.67;;;3.97;;
9819;SDS011;4949;48.482;9.206;2022-12-07T13:10:33;4.77;;;4.27;;
9819;SDS011;4949;48.482;9.206;2022-12-07T13:15:38;7.47;;;5.13;;
9819;SDS011;4949;48.482;9.206;2022-12-07T13:31:38;4.57;;;4.17;;
9819;SDS011;4949;48.482;9.206;2022-12-07T13:36:52;4.50;;;4.10;;
9819;SDS011;4949;48.482;9.206;2022-12-07T13:41:54;5.80;;;4.73;;
9819;SDS011;4949;48.482;9.206;2022-12-07T13:47:06;5.33;;;4.53;;
9819;SDS011;4949;48.482;9.206;2022-12-07T13:52:27;4.50;;;4.10;;
9819;SDS011;4949;48.482;9.206;2022-12-07T13:57:33;5.13;;;4.63;;
9819;SDS011;4949;48.482;9.206;2022-12-07T14:02:35;5.53;;;4.43;;
9819;SDS011;4949;48.482;9.206;2022-12-07T14:07:47;4.83;;;4.43;;
9819;SDS011;4949;48.482;9.206;2022-12-07T14:13:02;5.37;;;4.30;;
9819;SDS011;4949;48.482;9.206;2022-12-07T14:18:28;5.40;;;4.80;;
9819;SDS011;4949;48.482;9.206;2022-12-07T14:23:37;5.10;;;4.60;;
9819;SDS011;4949;48.482;9.206;2022-12-07T14:28:43;6.70;;;5.33;;
9819;SDS011;4949;48.482;9.206;2022-12-07T14:33:46;5.50;;;4.57;;
9819;SDS011;4949;48.482;9.206;2022-12-07T14:38:52;5.20;;;4.00;;
9819;SDS011;4949;48.482;9.206;2022-12-07T14:43:56;5.03;;;4.53;;
9819;SDS011;4949;48.482;9.206;2022-12-07T14:48:59;5.97;;;5.17;;
9819;SDS011;4949;48.482;9.206;2022-12-07T14:53:59;8.20;;;5.87;;
9819;SDS011;4949;48.482;9.206;2022-12-07T14:59:00;5.50;;;4.90;;
9819;SDS011;4949;48.482;9.206;2022-12-07T15:04:01;5.57;;;4.93;;
9819;SDS011;4949;48.482;9.206;2022-12-07T15:09:02;6.27;;;5.40;;
9819;SDS011;4949;48.482;9.206;2022-12-07T15:14:05;6.47;;;5.87;;
9819;SDS011;4949;48.482;9.206;2022-12-07T15:19:12;5.67;;;5.10;;
9819;SDS011;4949;48.482;9.206;2022-12-07T15:24:16;7.43;;;6.73;;
9819;SDS011;4949;48.482;9.206;2022-12-07T15:29:17;9.40;;;6.50;;
9819;SDS011;4949;48.482;9.206;2022-12-07T15:34:20;9.43;;;6.20;;
9819;SDS011;4949;48.482;9.206;2022-12-07T15:39:21;7.40;;;6.57;;
9819;SDS011;4949;48.482;9.206;2022-12-07T15:44:24;8.23;;;5.50;;
9819;SDS011;4949;48.482;9.206;2022-12-07T15:49:43;8.40;;;6.90;;
9819;SDS011;4949;48.482;9.206;2022-12-07T15:54:44;6.60;;;5.63;;
9819;SDS011;4949;48.482;9.206;2022-12-07T15:59:45;8.00;;;6.30;;
9819;SDS011;4949;48.482;9.206;2022-12-07T16:04:48;11.50;;;6.50;;
9819;SDS011;4949;48.482;9.206;2022-12-07T16:09:52;6.60;;;5.90;;
9819;SDS011;4949;48.482;9.206;2022-12-07T16:14:53;9.60;;;7.10;;
9819;SDS011;4949;48.482;9.206;2022-12-07T16:19:54;7.50;;;6.70;;
9819;SDS011;4949;48.482;9.206;2022-12-07T16:24:55;7.50;;;6.70;;
9819;SDS011;4949;48.482;9.206;2022-12-07T16:29:55;8.07;;;6.87;;
9819;SDS011;4949;48.482;9.206;2022-12-07T16:34:56;6.33;;;5.73;;
9819;SDS011;4949;48.482;9.206;2022-12-07T16:39:59;7.43;;;6.33;;
9819;SDS011;4949;48.482;9.206;2022-12-07T16:45:00;7.13;;;6.20;;
9819;SDS011;4949;48.482;9.206;2022-12-07T16:50:01;7.47;;;6.30;;
9819;SDS011;4949;48.482;9.206;2022-12-07T16:55:02;7.53;;;6.73;;
9819;SDS011;4949;48.482;9.206;2022-12-07T17:00:04;7.83;;;6.60;;
9819;SDS011;4949;48.482;9.206;2022-12-07T17:05:05;8.30;;;7.50;;
9819;SDS011;4949;48.482;9.206;2022-12-07T17:10:08;10.40;;;7.27;;
9819;SDS011;4949;48.482;9.206;2022-12-07T17:15:09;9.10;;;6.90;;
9819;SDS011;4949;48.482;9.206;2022-12-07T17:20:23;8.77;;;7.40;;
9819;SDS011;4949;48.482;9.206;2022-12-07T17:25:26;8.60;;;7.40;;
9819;SDS011;4949;48.482;9.206;2022-12-07T17:30:29;12.23;;;8.00;;
9819;SDS011;4949;48.482;9.206;2022-12-07T17:35:31;11.17;;;7.57;;
9819;SDS011;4949;48.482;9.206;2022-12-07T17:40:34;9.20;;;8.20;;
9819;SDS011;4949;48.482;9.206;2022-12-07T17:45:37;8.57;;;7.63;;
9819;SDS011;4949;48.482;9.206;2022-12-07T17:50:42;8.80;;;8.00;;
9819;SDS011;4949;48.482;9.206;2022-12-07T17:56:04;9.63;;;7.80;;
9819;SDS011;4949;48.482;9.206;2022-12-07T18:01:07;10.50;;;8.10;;
9819;SDS011;4949;48.482;9.206;2022-12-07T18:06:18;9.80;;;8.90;;
9819;SDS011;4949;48.482;9.206;2022-12-07T18:23:09;11.50;;;9.20;;
9819;SDS011;4949;48.482;9.206;2022-12-07T18:28:13;10.17;;;8.57;;
9819;SDS011;4949;48.482;9.206;2022-12-07T18:33:32;10.90;;;9.53;;
9819;SDS011;4949;48.482;9.206;2022-12-07T18:38:40;9.67;;;8.60;;
9819;SDS011;4949;48.482;9.206;2022-12-07T18:43:44;10.10;;;7.80;;
9819;SDS011;4949;48.482;9.206;2022-12-07T18:48:45;9.27;;;7.70;;
9819;SDS011;4949;48.482;9.206;2022-12-07T18:53:46;8.77;;;7.87;;
9819;SDS011;4949;48.482;9.206;2022-12-07T18:58:48;9.37;;;7.10;;
9819;SDS011;4949;48.482;9.206;2022-12-07T19:04:15;8.50;;;7.60;;
9819;SDS011;4949;48.482;9.206;2022-12-07T19:09:19;10.47;;;7.07;;
9819;SDS011;4949;48.482;9.206;2022-12-07T19:14:26;6.40;;;5.77;;
9819;SDS011;4949;48.482;9.206;2022-12-07T19:19:38;5.10;;;4.60;;
9819;SDS011;4949;48.482;9.206;2022-12-07T19:24:43;4.50;;;4.13;;
9819;SDS011;4949;48.482;9.206;2022-12-07T19:29:48;4.63;;;4.00;;
9819;SDS011;4949;48.482;9.206;2022-12-07T19:34:52;5.13;;;4.73;;
9819;SDS011;4949;48.482;9.206;2022-12-07T19:39:55;3.70;;;3.40;;
9819;SDS011;4949;48.482;9.206;2022-12-07T19:44:55;4.40;;;4.00;;
9819;SDS011;4949;48.482;9.206;2022-12-07T19:49:56;4.90;;;4.30;;
9819;SDS011;4949;48.482;9.206;2022-12-07T19:54:57;4.80;;;4.40;;
9819;SDS011;4949;48.482;9.206;2022-12-07T19:59:58;4.70;;;4.30;;
9819;SDS011;4949;48.482;9.206;2022-12-07T20:04:58;3.90;;;3.60;;
9819;SDS011;4949;48.482;9.206;2022-12-07T20:09:59;5.83;;;5.00;;
9819;SDS011;4949;48.482;9.206;2022-12-07T20:15:00;4.93;;;4.50;;
9819;SDS011;4949;48.482;9.206;2022-12-07T20:20:03;5.20;;;4.70;;
9819;SDS011;4949;48.482;9.206;2022-12-07T20:25:05;4.97;;;4.47;;
9819;SDS011;4949;48.482;9.206;2022-12-07T20:30:06;7.20;;;4.67;;
9819;SDS011;4949;48.482;9.206;2022-12-07T20:35:10;5.57;;;5.00;;
9819;SDS011;4949;48.482;9.206;2022-12-07T20:40:13;5.20;;;4.67;;
9819;SDS011;4949;48.482;9.206;2022-12-07T20:45:14;5.30;;;4.80;;
9819;SDS011;4949;48.482;9.206;2022-12-07T20:50:14;5.73;;;5.23;;
9819;SDS011;4949;48.482;9.206;2022-12-07T20:55:15;5.67;;;5.00;;
9819;SDS011;4949;48.482;9.206;2022-12-07T21:00:19;5.73;;;5.00;;
9819;SDS011;4949;48.482;9.206;2022-12-07T21:05:20;5.57;;;4.80;;
9819;SDS011;4949;48.482;9.206;2022-12-07T21:10:23;5.33;;;4.80;;
9819;SDS011;4949;48.482;9.206;2022-12-07T21:15:24;4.73;;;4.23;;
9819;SDS011;4949;48.482;9.206;2022-12-07T21:20:27;7.40;;;5.70;;
9819;SDS011;4949;48.482;9.206;2022-12-07T21:25:30;7.00;;;5.70;;
9819;SDS011;4949;48.482;9.206;2022-12-07T21:30:31;6.90;;;5.87;;
9819;SDS011;4949;48.482;9.206;2022-12-07T21:35:31;7.47;;;6.00;;
9819;SDS011;4949;48.482;9.206;2022-12-07T21:40:32;6.17;;;5.43;;
9819;SDS011;4949;48.482;9.206;2022-12-07T21:45:33;6.67;;;5.97;;
9819;SDS011;4949;48.482;9.206;2022-12-07T21:50:36;5.67;;;4.30;;
9819;SDS011;4949;48.482;9.206;2022-12-07T21:55:42;6.03;;;5.53;;
9819;SDS011;4949;48.482;9.206;2022-12-07T22:00:44;7.40;;;5.33;;
9819;SDS011;4949;48.482;9.206;2022-12-07T22:05:45;6.27;;;5.23;;
9819;SDS011;4949;48.482;9.206;2022-12-07T22:10:48;7.07;;;5.70;;
9819;SDS011;4949;48.482;9.206;2022-12-07T22:15:51;7.60;;;5.80;;
9819;SDS011;4949;48.482;9.206;2022-12-07T22:20:51;7.30;;;5.73;;
9819;SDS011;4949;48.482;9.206;2022-12-07T22:25:52;7.80;;;6.53;;
9819;SDS011;4949;48.482;9.206;2022-12-07T22:30:53;7.23;;;5.90;;
9819;SDS011;4949;48.482;9.206;2022-12-07T22:35:53;8.20;;;6.77;;
9819;SDS011;4949;48.482;9.206;2022-12-07T22:40:54;7.67;;;6.73;;
9819;SDS011;4949;48.482;9.206;2022-12-07T22:45:57;7.53;;;6.80;;
9819;SDS011;4949;48.482;9.206;2022-12-07T22:50:59;7.90;;;7.10;;
9819;SDS011;4949;48.482;9.206;2022-12-07T22:56:00;5.87;;;5.23;;
9819;SDS011;4949;48.482;9.206;2022-12-07T23:01:08;6.80;;;6.10;;
9819;SDS011;4949;48.482;9.206;2022-12-07T23:06:22;7.93;;;6.33;;
9819;SDS011;4949;48.482;9.206;2022-12-07T23:11:32;7.03;;;6.20;;
9819;SDS011;4949;48.482;9.206;2022-12-07T23:16:53;6.30;;;5.70;;
9819;SDS011;4949;48.482;9.206;2022-12-07T23:21:56;7.27;;;6.17;;
9819;SDS011;4949;48.482;9.206;2022-12-07T23:26:57;6.83;;;5.93;;
9819;SDS011;4949;48.482;9.206;2022-12-07T23:32:00;8.97;;;6.53;;
9819;SDS011;4949;48.482;9.206;2022-12-07T23:37:03;7.90;;;7.10;;
9819;SDS011;4949;48.482;9.206;2022-12-07T23:42:03;7.20;;;6.50;;
9819;SDS011;4949;48.482;9.206;2022-12-07T23:47:04;7.60;;;6.90;;
9819;SDS011;4949;48.482;9.206;2022-12-07T23:52:07;8.57;;;7.47;;
9819;SDS011;4949;48.482;9.206;2022-12-07T23:57:10;8.27;;;7.37;;
